createdAt,value
2022-08-03T00:00:24.207Z,100.00
2022-08-03T00:02:50.926Z,100.00
2022-08-03T00:05:17.622Z,100.00
2022-08-03T00:07:44.218Z,100.00
2022-08-03T00:10:11.302Z,100.00
2022-08-03T00:12:37.879Z,100.00
2022-08-03T00:15:08.243Z,100.00
2022-08-03T00:17:52.960Z,100.00
2022-08-03T00:20:21.780Z,100.00
2022-08-03T00:22:48.895Z,100.00
2022-08-03T00:25:15.707Z,100.00
2022-08-03T00:27:42.292Z,100.00
2022-08-03T00:30:09.204Z,100.00
2022-08-03T00:32:35.751Z,100.00
2022-08-03T00:35:04.369Z,100.00
2022-08-03T00:37:41.443Z,100.00
2022-08-03T00:40:11.120Z,100.00
2022-08-03T00:42:50.747Z,100.00
2022-08-03T00:45:39.662Z,100.00
2022-08-03T00:48:29.440Z,100.00
2022-08-03T00:50:55.100Z,100.00
2022-08-03T00:53:21.919Z,100.00
2022-08-03T00:55:48.459Z,100.00
2022-08-03T00:58:15.192Z,100.00
2022-08-03T01:00:42.337Z,100.00
2022-08-03T01:03:10.386Z,100.00
2022-08-03T01:05:55.702Z,100.00
2022-08-03T01:08:47.849Z,100.00
2022-08-03T01:11:35.634Z,100.00
2022-08-03T01:14:32.955Z,100.00
2022-08-03T01:17:06.941Z,100.00
2022-08-03T01:19:54.625Z,100.00
2022-08-03T01:22:37.419Z,100.00
2022-08-03T01:25:04.041Z,100.00
2022-08-03T01:27:48.610Z,100.00
2022-08-03T01:30:15.315Z,100.00
2022-08-03T01:32:59.744Z,100.00
2022-08-03T01:35:47.675Z,100.00
2022-08-03T01:38:27.748Z,100.00
2022-08-03T01:40:56.330Z,100.00
2022-08-03T01:44:26.218Z,100.00
2022-08-03T01:46:14.685Z,100.00
2022-08-03T01:48:43.059Z,100.00
2022-08-03T01:51:10.694Z,100.00
2022-08-03T01:53:38.944Z,100.00
2022-08-03T01:56:06.628Z,100.00
2022-08-03T01:58:35.462Z,100.00
2022-08-03T02:01:03.043Z,100.00
2022-08-03T02:03:30.031Z,100.00
2022-08-03T02:06:55.572Z,100.00
2022-08-03T02:08:45.048Z,100.00
2022-08-03T02:11:12.577Z,100.00
2022-08-03T02:13:39.675Z,100.00
2022-08-03T02:16:07.305Z,100.00
2022-08-03T02:18:34.275Z,100.00
2022-08-03T02:21:11.114Z,100.00
2022-08-03T02:23:38.387Z,100.00
2022-08-03T02:26:07.399Z,100.00
2022-08-03T02:28:40.098Z,100.00
2022-08-03T02:31:13.109Z,100.00
2022-08-03T02:33:44.265Z,100.00
2022-08-03T02:36:12.008Z,100.00
2022-08-03T02:38:41.847Z,100.00
2022-08-03T02:41:16.947Z,100.00
2022-08-03T02:44:05.595Z,100.00
2022-08-03T02:46:34.431Z,100.00
2022-08-03T02:49:40.995Z,100.00
2022-08-03T02:51:50.872Z,100.00
2022-08-03T02:54:19.364Z,100.00
2022-08-03T02:56:47.269Z,100.00
2022-08-03T02:59:14.771Z,100.00
2022-08-03T03:01:41.817Z,100.00
2022-08-03T03:04:10.114Z,100.00
2022-08-03T03:06:40.163Z,100.00
2022-08-03T03:09:07.231Z,100.00
2022-08-03T03:11:36.502Z,100.00
2022-08-03T03:14:03.389Z,100.00
2022-08-03T03:16:30.762Z,100.00
2022-08-03T03:18:57.611Z,100.00
2022-08-03T03:21:24.291Z,100.00
2022-08-03T03:23:51.055Z,100.00
2022-08-03T03:26:18.046Z,100.00
2022-08-03T03:28:44.993Z,100.00
2022-08-03T03:31:11.665Z,100.00
2022-08-03T03:33:38.662Z,100.00
2022-08-03T03:36:06.478Z,100.00
2022-08-03T03:38:33.412Z,100.00
2022-08-03T03:41:00.216Z,100.00
2022-08-03T03:43:27.026Z,100.00
2022-08-03T03:45:54.995Z,100.00
2022-08-03T03:48:21.830Z,100.00
2022-08-03T03:50:49.591Z,100.00
2022-08-03T03:53:16.240Z,100.00
2022-08-03T03:55:58.925Z,100.00
2022-08-03T03:58:28.803Z,100.00
2022-08-03T04:00:55.457Z,100.00
2022-08-03T04:03:22.141Z,100.00
2022-08-03T04:06:07.225Z,100.00
2022-08-03T04:08:52.452Z,100.00
2022-08-03T04:11:31.720Z,100.00
2022-08-03T04:14:07.940Z,100.00
2022-08-03T04:16:39.724Z,100.00
2022-08-03T04:19:11.477Z,100.00
2022-08-03T04:21:41.727Z,100.00
2022-08-03T04:24:09.579Z,100.00
2022-08-03T04:26:37.686Z,100.00
2022-08-03T04:29:06.310Z,100.00
2022-08-03T04:31:33.766Z,100.00
2022-08-03T04:34:00.578Z,100.00
2022-08-03T04:36:32.155Z,100.00
2022-08-03T04:39:06.974Z,100.00
2022-08-03T04:42:07.417Z,100.00
2022-08-03T04:44:28.486Z,100.00
2022-08-03T04:46:56.506Z,100.00
2022-08-03T04:49:23.170Z,100.00
2022-08-03T04:51:50.338Z,100.00
2022-08-03T04:54:16.954Z,100.00
2022-08-03T04:56:43.820Z,100.00
2022-08-03T04:59:10.964Z,100.00
2022-08-03T05:01:37.651Z,100.00
2022-08-03T05:04:04.396Z,100.00
2022-08-03T05:06:30.943Z,100.00
2022-08-03T05:08:57.456Z,100.00
2022-08-03T05:11:24.003Z,100.00
2022-08-03T05:13:50.641Z,100.00
2022-08-03T05:16:17.236Z,100.00
2022-08-03T05:18:44.204Z,100.00
2022-08-03T05:21:14.062Z,100.00
2022-08-03T05:23:41.419Z,100.00
2022-08-03T05:26:08.013Z,100.00
2022-08-03T05:28:34.563Z,100.00
2022-08-03T05:31:01.111Z,100.00
2022-08-03T05:33:27.675Z,100.00
2022-08-03T05:36:02.595Z,100.00
2022-08-03T05:38:35.024Z,100.00
2022-08-03T05:41:23.511Z,100.00
2022-08-03T05:43:53.692Z,100.00
2022-08-03T05:46:21.176Z,100.00
2022-08-03T05:48:48.108Z,100.00
2022-08-03T05:51:14.861Z,100.00
2022-08-03T05:53:42.793Z,100.00
2022-08-03T05:56:14.203Z,100.00
2022-08-03T05:58:47.254Z,100.00
2022-08-03T06:01:15.133Z,100.00
2022-08-03T06:03:41.932Z,100.00
2022-08-03T06:06:08.574Z,100.00
2022-08-03T06:08:35.547Z,100.00
2022-08-03T06:11:02.149Z,100.00
2022-08-03T06:13:28.840Z,100.00
2022-08-03T06:15:55.388Z,100.00
2022-08-03T06:18:21.981Z,100.00
2022-08-03T06:20:49.421Z,100.00
2022-08-03T06:23:18.086Z,100.00
2022-08-03T06:25:45.567Z,100.00
2022-08-03T06:28:35.280Z,100.00
2022-08-03T06:31:01.010Z,100.00
2022-08-03T06:34:31.577Z,100.00
2022-08-03T06:36:14.380Z,100.00
2022-08-03T06:38:40.946Z,100.00
2022-08-03T06:41:07.466Z,100.00
2022-08-03T06:43:37.772Z,100.00
2022-08-03T06:46:05.494Z,100.00
2022-08-03T06:48:32.457Z,100.00
2022-08-03T06:50:59.224Z,100.00
2022-08-03T06:53:25.878Z,100.00
2022-08-03T06:55:54.944Z,100.00
2022-08-03T06:58:22.097Z,100.00
2022-08-03T07:00:48.658Z,100.00
2022-08-03T07:03:15.238Z,100.00
2022-08-03T07:05:42.998Z,100.00
2022-08-03T07:08:10.042Z,100.00
2022-08-03T07:10:37.001Z,100.00
2022-08-03T07:13:04.076Z,100.00
2022-08-03T07:15:38.301Z,100.00
2022-08-03T07:18:17.722Z,100.00
2022-08-03T07:20:55.390Z,100.00
2022-08-03T07:23:21.933Z,100.00
2022-08-03T07:25:48.455Z,100.00
2022-08-03T07:28:15.401Z,100.00
2022-08-03T07:30:41.949Z,100.00
2022-08-03T07:33:08.499Z,100.00
2022-08-03T07:35:35.100Z,100.00
2022-08-03T07:38:01.668Z,100.00
2022-08-03T07:40:31.630Z,100.00
2022-08-03T07:42:58.924Z,79.76
2022-08-03T07:45:26.600Z,75.70
2022-08-03T07:47:54.113Z,75.69
2022-08-03T07:50:21.373Z,69.18
2022-08-03T07:52:48.197Z,69.22
2022-08-03T07:55:18.229Z,66.64
2022-08-03T07:57:44.842Z,64.60
2022-08-03T08:00:17.362Z,63.66
2022-08-03T08:02:44.441Z,62.84
2022-08-03T08:05:12.513Z,60.61
2022-08-03T08:07:39.570Z,61.69
2022-08-03T08:10:07.871Z,61.47
2022-08-03T08:12:34.460Z,62.98
2022-08-03T08:15:01.259Z,60.04
2022-08-03T08:17:27.809Z,61.35
2022-08-03T08:19:54.386Z,60.29
2022-08-03T08:22:29.791Z,59.95
2022-08-03T08:24:58.185Z,62.10
2022-08-03T08:27:24.771Z,60.26
2022-08-03T08:29:55.193Z,61.22
2022-08-03T08:32:24.243Z,60.39
2022-08-03T08:34:51.044Z,60.25
2022-08-03T08:37:17.713Z,59.64
2022-08-03T08:39:44.273Z,60.75
2022-08-03T08:42:10.883Z,57.35
2022-08-03T08:44:37.450Z,57.89
2022-08-03T08:47:04.749Z,57.68
2022-08-03T08:49:33.037Z,58.35
2022-08-03T08:52:01.103Z,58.10
2022-08-03T08:54:29.928Z,54.49
2022-08-03T08:56:57.507Z,58.13
2022-08-03T08:59:24.472Z,56.72
2022-08-03T09:01:51.041Z,56.09
2022-08-03T09:04:17.887Z,55.71
2022-08-03T09:06:58.576Z,53.63
2022-08-03T09:10:10.745Z,54.50
2022-08-03T09:12:40.611Z,53.92
2022-08-03T09:15:25.504Z,52.33
2022-08-03T09:17:55.594Z,50.24
2022-08-03T09:20:24.480Z,50.81
2022-08-03T09:22:59.916Z,51.61
2022-08-03T09:25:30.835Z,48.82
2022-08-03T09:28:06.637Z,51.20
2022-08-03T09:30:35.102Z,49.40
2022-08-03T09:33:06.607Z,51.72
2022-08-03T09:38:26.370Z,50.18
2022-08-03T09:40:59.012Z,50.18
2022-08-03T09:43:27.655Z,48.28
2022-08-03T09:46:03.772Z,50.60
2022-08-03T09:48:31.714Z,50.71
2022-08-03T09:51:12.485Z,48.97
2022-08-03T09:53:58.471Z,46.68
2022-08-03T09:56:40.312Z,46.28
2022-08-03T09:59:07.007Z,44.30
2022-08-03T10:01:35.260Z,42.82
2022-08-03T10:04:03.900Z,40.73
2022-08-03T10:06:31.199Z,39.52
2022-08-03T10:09:10.676Z,35.08
2022-08-03T10:11:41.799Z,32.14
2022-08-03T10:14:11.197Z,31.52
2022-08-03T10:16:39.917Z,31.57
2022-08-03T10:19:08.125Z,29.88
2022-08-03T10:21:36.124Z,31.00
2022-08-03T10:24:05.583Z,30.42
2022-08-03T10:26:36.941Z,28.89
2022-08-03T10:29:12.910Z,28.38
2022-08-03T10:31:57.874Z,26.67
2022-08-03T10:34:27.225Z,25.05
2022-08-03T10:36:57.416Z,24.34
2022-08-03T10:39:28.206Z,23.61
2022-08-03T10:41:56.734Z,23.73
2022-08-03T10:44:24.812Z,23.42
2022-08-03T10:46:51.631Z,22.08
2022-08-03T10:49:33.595Z,21.22
2022-08-03T10:52:02.618Z,21.60
2022-08-03T10:55:03.231Z,21.96
2022-08-03T10:57:47.437Z,21.54
2022-08-03T11:00:24.554Z,21.04
2022-08-03T11:03:08.673Z,20.45
2022-08-03T11:05:45.741Z,21.21
2022-08-03T11:08:28.033Z,19.65
2022-08-03T11:11:00.397Z,20.15
2022-08-03T11:13:30.912Z,21.45
2022-08-03T11:16:02.992Z,21.30
2022-08-03T11:18:31.536Z,20.06
2022-08-03T11:20:59.913Z,19.24
2022-08-03T11:24:04.463Z,19.36
2022-08-03T11:26:33.410Z,19.31
2022-08-03T11:29:27.378Z,17.42
2022-08-03T11:31:54.009Z,18.55
2022-08-03T11:34:20.658Z,18.27
2022-08-03T11:37:19.806Z,18.06
2022-08-03T11:39:47.126Z,18.14
2022-08-03T11:42:22.910Z,16.22
2022-08-03T11:44:54.031Z,15.99
2022-08-03T11:47:21.754Z,16.57
2022-08-03T11:49:49.351Z,15.17
2022-08-03T11:52:17.428Z,15.26
2022-08-03T11:54:44.281Z,14.86
2022-08-03T11:57:10.888Z,13.03
2022-08-03T11:59:38.838Z,13.83
2022-08-03T12:02:12.466Z,13.11
2022-08-03T12:04:52.135Z,13.40
2022-08-03T12:08:02.214Z,13.16
2022-08-03T12:10:11.997Z,11.79
2022-08-03T12:12:43.300Z,12.15
2022-08-03T12:15:13.085Z,13.66
2022-08-03T12:17:41.303Z,13.69
2022-08-03T12:20:09.961Z,12.52
2022-08-03T12:22:40.447Z,13.15
2022-08-03T12:25:08.745Z,13.01
2022-08-03T12:27:35.966Z,13.21
2022-08-03T12:30:04.018Z,12.79
2022-08-03T12:32:31.150Z,12.83
2022-08-03T12:35:01.653Z,12.76
2022-08-03T12:37:29.273Z,12.99
2022-08-03T12:40:09.146Z,12.30
2022-08-03T12:42:38.615Z,12.69
2022-08-03T12:45:21.554Z,12.90
2022-08-03T12:47:59.374Z,15.49
2022-08-03T12:50:32.809Z,14.73
2022-08-03T12:53:00.909Z,13.82
2022-08-03T12:55:57.560Z,12.80
2022-08-03T12:58:35.182Z,12.50
2022-08-03T13:01:05.258Z,12.13
2022-08-03T13:03:49.612Z,11.69
2022-08-03T13:06:19.610Z,10.88
2022-08-03T13:08:48.277Z,12.17
2022-08-03T13:11:52.532Z,11.95
2022-08-03T13:14:10.619Z,10.97
2022-08-03T13:16:43.288Z,9.82
2022-08-03T13:19:15.620Z,10.06
2022-08-03T13:21:53.524Z,9.68
2022-08-03T13:24:30.542Z,8.49
2022-08-03T13:26:58.753Z,9.65
2022-08-03T13:29:25.294Z,9.84
2022-08-03T13:31:51.878Z,9.94
2022-08-03T13:34:22.901Z,10.35
2022-08-03T13:39:57.327Z,13.04
2022-08-03T13:42:25.625Z,15.07
2022-08-03T13:44:52.287Z,16.45
2022-08-03T13:47:19.427Z,18.76
2022-08-03T13:49:54.210Z,20.43
2022-08-03T13:52:29.934Z,22.32
2022-08-03T13:54:56.501Z,22.97
2022-08-03T13:58:03.346Z,23.38
2022-08-03T14:00:10.371Z,24.35
2022-08-03T14:02:37.206Z,24.87
2022-08-03T14:05:03.990Z,25.74
2022-08-03T14:07:30.584Z,26.69
2022-08-03T14:09:57.121Z,27.73
2022-08-03T14:12:23.775Z,26.68
2022-08-03T14:14:50.309Z,27.02
2022-08-03T14:17:16.985Z,27.86
2022-08-03T14:19:53.324Z,27.88
2022-08-03T14:22:21.455Z,28.53
2022-08-03T14:24:49.157Z,29.12
2022-08-03T14:27:16.408Z,29.45
2022-08-03T14:29:42.987Z,29.16
2022-08-03T14:32:13.180Z,29.90
2022-08-03T14:34:40.975Z,29.70
2022-08-03T14:37:07.996Z,28.83
2022-08-03T14:42:21.614Z,31.47
2022-08-03T14:44:48.237Z,31.92
2022-08-03T14:47:14.900Z,32.21
2022-08-03T14:50:37.374Z,30.88
2022-08-03T14:52:28.616Z,31.43
2022-08-03T14:54:55.203Z,31.74
2022-08-03T14:57:22.020Z,31.33
2022-08-03T14:59:56.208Z,30.34
2022-08-03T15:02:24.515Z,31.09
2022-08-03T15:04:51.494Z,30.04
2022-08-03T15:07:18.649Z,30.83
2022-08-03T15:09:45.406Z,31.59
2022-08-03T15:12:12.039Z,30.64
2022-08-03T15:14:38.761Z,31.12
2022-08-03T15:17:05.538Z,31.24
2022-08-03T15:20:00.774Z,30.63
2022-08-03T15:22:20.696Z,29.80
2022-08-03T15:24:51.745Z,30.43
2022-08-03T15:27:18.683Z,31.58
2022-08-03T15:30:05.795Z,31.75
2022-08-03T15:32:35.444Z,31.59
2022-08-03T15:35:02.266Z,32.36
2022-08-03T15:37:28.999Z,32.58
2022-08-03T15:39:59.938Z,32.99
2022-08-03T15:42:29.214Z,33.44
2022-08-03T15:44:55.777Z,33.51
2022-08-03T15:47:22.578Z,32.38
2022-08-03T15:49:49.369Z,33.56
2022-08-03T15:52:17.111Z,34.19
2022-08-03T15:54:43.762Z,32.78
2022-08-03T15:57:10.311Z,33.01
2022-08-03T15:59:37.041Z,33.35
2022-08-03T16:02:04.131Z,33.50
2022-08-03T16:04:30.791Z,34.38
2022-08-03T16:06:57.310Z,34.35
2022-08-03T16:09:43.045Z,34.05
2022-08-03T16:12:11.862Z,35.08
2022-08-03T16:14:53.480Z,34.33
2022-08-03T16:17:21.485Z,35.43
2022-08-03T16:19:48.419Z,36.03
2022-08-03T16:22:15.010Z,35.98
2022-08-03T16:24:41.602Z,36.18
2022-08-03T16:27:17.541Z,36.71
2022-08-03T16:29:54.884Z,37.20
2022-08-03T16:32:21.511Z,37.28
2022-08-03T16:34:48.273Z,36.67
2022-08-03T16:37:37.686Z,37.50
2022-08-03T16:40:02.125Z,37.67
2022-08-03T16:42:28.686Z,37.95
2022-08-03T16:44:55.256Z,38.03
2022-08-03T16:47:22.766Z,37.63
2022-08-03T16:49:54.747Z,37.76
2022-08-03T16:52:23.459Z,37.68
2022-08-03T16:54:50.673Z,37.76
2022-08-03T16:57:58.475Z,37.81
2022-08-03T17:00:10.522Z,38.32
2022-08-03T17:02:37.461Z,38.68
2022-08-03T17:05:04.514Z,38.19
2022-08-03T17:07:31.041Z,37.15
2022-08-03T17:09:58.075Z,39.19
2022-08-03T17:12:27.082Z,37.85
2022-08-03T17:14:54.335Z,38.89
2022-08-03T17:17:53.358Z,39.91
2022-08-03T17:20:19.124Z,39.03
2022-08-03T17:22:58.475Z,39.13
2022-08-03T17:25:39.733Z,39.38
2022-08-03T17:28:48.435Z,39.09
2022-08-03T17:31:23.122Z,39.96
2022-08-03T17:34:00.490Z,40.51
2022-08-03T17:36:47.595Z,39.75
2022-08-03T17:39:30.793Z,39.92
2022-08-03T17:42:05.313Z,40.57
2022-08-03T17:44:52.536Z,41.16
2022-08-03T17:47:19.957Z,40.95
2022-08-03T17:49:48.193Z,41.26
2022-08-03T17:52:24.540Z,41.42
2022-08-03T17:55:56.580Z,42.15
2022-08-03T17:58:02.256Z,41.94
2022-08-03T18:00:51.591Z,43.04
2022-08-03T18:03:29.242Z,42.88
2022-08-03T18:06:10.766Z,43.23
2022-08-03T18:08:45.192Z,43.24
2022-08-03T18:11:15.210Z,44.32
2022-08-03T18:14:16.060Z,44.63
2022-08-03T18:17:06.505Z,45.03
2022-08-03T18:20:03.399Z,45.70
2022-08-03T18:22:26.934Z,45.99
2022-08-03T18:24:54.705Z,46.12
2022-08-03T18:27:22.865Z,46.56
2022-08-03T18:29:50.296Z,48.23
2022-08-03T18:32:18.368Z,48.68
2022-08-03T18:34:53.652Z,49.88
2022-08-03T18:37:25.281Z,50.46
2022-08-03T18:40:11.754Z,51.17
2022-08-03T18:42:52.950Z,52.06
2022-08-03T18:45:56.505Z,53.07
2022-08-03T18:48:11.644Z,54.18
2022-08-03T18:50:41.043Z,54.82
2022-08-03T18:53:23.468Z,55.63
2022-08-03T18:56:34.414Z,56.44
2022-08-03T18:59:32.385Z,56.94
2022-08-03T19:02:09.202Z,56.83
2022-08-03T19:04:41.102Z,57.78
2022-08-03T19:07:09.529Z,58.36
2022-08-03T19:09:47.710Z,58.82
2022-08-03T19:12:27.258Z,59.63
2022-08-03T19:15:10.608Z,60.48
2022-08-03T19:17:50.298Z,61.38
2022-08-03T19:20:30.848Z,61.68
2022-08-03T19:22:59.409Z,61.81
2022-08-03T19:25:35.240Z,62.54
2022-08-03T19:28:14.504Z,63.48
2022-08-03T19:30:46.306Z,64.26
2022-08-03T19:33:31.430Z,65.88
2022-08-03T19:36:18.105Z,66.66
2022-08-03T19:38:54.709Z,67.82
2022-08-03T19:41:24.566Z,68.21
2022-08-03T19:44:00.903Z,68.21
2022-08-03T19:46:34.795Z,69.59
2022-08-03T19:49:15.054Z,70.80
2022-08-03T19:51:58.480Z,71.83
2022-08-03T19:54:36.704Z,73.40
2022-08-03T19:57:17.586Z,75.89
2022-08-03T19:59:50.105Z,77.92
2022-08-03T20:02:26.265Z,80.27
2022-08-03T20:04:58.008Z,80.36
2022-08-03T20:07:28.514Z,81.49
2022-08-03T20:09:56.506Z,81.87
2022-08-03T20:12:26.643Z,81.87
2022-08-03T20:14:58.644Z,81.87
2022-08-03T20:17:54.728Z,82.99
2022-08-03T20:20:13.629Z,83.53
2022-08-03T20:22:45.502Z,85.80
2022-08-03T20:25:13.175Z,89.96
2022-08-03T20:28:05.823Z,91.81
2022-08-03T20:30:35.193Z,90.73
2022-08-03T20:33:01.790Z,93.15
2022-08-03T20:35:28.931Z,92.70
2022-08-03T20:37:55.915Z,93.46
2022-08-03T20:40:27.370Z,93.65
2022-08-03T20:42:55.302Z,94.03
2022-08-03T20:45:59.187Z,94.19
2022-08-03T20:48:09.897Z,94.47
2022-08-03T20:50:38.373Z,96.12
2022-08-03T20:53:06.935Z,97.35
2022-08-03T20:55:47.740Z,97.68
2022-08-03T20:58:21.199Z,97.34
2022-08-03T21:00:51.569Z,97.52
2022-08-03T21:03:18.889Z,97.59
2022-08-03T21:05:48.447Z,100.00
2022-08-03T21:08:21.529Z,100.00
2022-08-03T21:10:49.310Z,100.00
2022-08-03T21:13:23.587Z,100.00
2022-08-03T21:16:03.209Z,100.00
2022-08-03T21:18:50.776Z,100.00
2022-08-03T21:21:22.970Z,100.00
2022-08-03T21:23:52.930Z,100.00
2022-08-03T21:26:22.729Z,100.00
2022-08-03T21:28:51.820Z,100.00
2022-08-03T21:31:25.449Z,100.00
2022-08-03T21:33:57.852Z,100.00
2022-08-03T21:36:29.471Z,100.00
2022-08-03T21:38:57.397Z,100.00
2022-08-03T21:41:31.435Z,100.00
2022-08-03T21:43:58.837Z,100.00
2022-08-03T21:46:27.319Z,100.00
2022-08-03T21:50:04.434Z,100.00
2022-08-03T21:51:49.525Z,100.00
2022-08-03T21:54:20.517Z,100.00
2022-08-03T21:56:48.121Z,100.00
2022-08-03T21:59:19.775Z,100.00
2022-08-03T22:01:49.118Z,100.00
2022-08-03T22:04:50.651Z,100.00
2022-08-03T22:07:08.067Z,100.00
2022-08-03T22:09:36.290Z,100.00
2022-08-03T22:12:03.477Z,100.00
2022-08-03T22:14:31.646Z,100.00
2022-08-03T22:16:58.263Z,100.00
2022-08-03T22:19:24.927Z,100.00
2022-08-03T22:21:51.552Z,100.00
2022-08-03T22:24:19.685Z,100.00
2022-08-03T22:27:09.737Z,100.00
2022-08-03T22:29:36.868Z,100.00
2022-08-03T22:32:04.080Z,100.00
2022-08-03T22:34:30.736Z,100.00
2022-08-03T22:37:02.061Z,100.00
2022-08-03T22:39:29.755Z,100.00
2022-08-03T22:41:59.800Z,100.00
2022-08-03T22:44:27.536Z,100.00
2022-08-03T22:46:54.563Z,100.00
2022-08-03T22:49:22.258Z,100.00
2022-08-03T22:51:50.867Z,100.00
2022-08-03T22:54:17.944Z,100.00
2022-08-03T22:56:46.739Z,100.00
2022-08-03T22:59:39.277Z,100.00
2022-08-03T23:02:19.979Z,100.00
2022-08-03T23:04:51.980Z,100.00
2022-08-03T23:07:36.429Z,100.00
2022-08-03T23:10:06.476Z,100.00
2022-08-03T23:12:35.473Z,100.00
2022-08-03T23:15:05.307Z,100.00
2022-08-03T23:17:33.121Z,100.00
2022-08-03T23:20:06.333Z,100.00
2022-08-03T23:22:39.118Z,100.00
2022-08-03T23:25:10.155Z,100.00
2022-08-03T23:27:39.972Z,100.00
2022-08-03T23:30:07.140Z,100.00
2022-08-03T23:32:33.797Z,100.00
2022-08-03T23:35:21.815Z,100.00
2022-08-03T23:38:04.797Z,100.00
2022-08-03T23:40:38.899Z,100.00
2022-08-03T23:43:05.675Z,100.00
2022-08-03T23:45:34.803Z,100.00
2022-08-03T23:48:01.406Z,100.00
2022-08-03T23:50:31.198Z,100.00
2022-08-03T23:53:10.675Z,100.00
2022-08-03T23:56:13.858Z,100.00
2022-08-03T23:59:00.098Z,100.00
